Time;durP1;ratioP1;P1;durP2;ratioP2;P2;SDS_P1;SDS_P2;PMS_P1;PMS_P2;Temp;Humidity;BMP_temperature;BMP_pressure;BME280_temperature;BME280_humidity;BME280_pressure;Samples;Min_cycle;Max_cycle;Signal;HPM_P1;HPM_P2
2024/03/08 00:00:09;;;;;;;30.67;16.40;;;;;;;1.19;100.00;97147.25;5065274;28;20044;-62
2024/03/08 00:02:37;;;;;;;28.38;15.27;;;;;;;1.23;100.00;97152.00;5069199;28;20525;-62
2024/03/08 00:05:05;;;;;;;30.77;15.55;;;;;;;1.22;100.00;97145.00;5077524;28;20048;-62
2024/03/08 00:07:32;;;;;;;33.17;16.13;;;;;;;1.20;100.00;97141.72;5073116;28;20054;-62
2024/03/08 00:09:59;;;;;;;29.15;15.23;;;;;;;1.10;100.00;97141.28;5064106;28;20056;-62
2024/03/08 00:12:28;;;;;;;26.33;14.80;;;;;;;0.89;100.00;97146.47;5064045;28;20055;-62
2024/03/08 00:14:55;;;;;;;28.00;15.90;;;;;;;0.98;100.00;97141.81;5065406;28;20439;-62
2024/03/08 00:17:27;;;;;;;30.50;16.27;;;;;;;1.01;100.00;97140.59;5063024;28;20086;-62
2024/03/08 00:19:54;;;;;;;29.58;15.55;;;;;;;1.02;100.00;97140.41;5053444;28;20047;-62
2024/03/08 00:22:22;;;;;;;31.92;15.43;;;;;;;1.02;100.00;97140.41;5068026;28;20499;-62
2024/03/08 00:24:50;;;;;;;27.67;14.23;;;;;;;0.61;100.00;97144.66;5065079;28;20032;-62
2024/03/08 00:27:17;;;;;;;27.35;13.85;;;;;;;-0.21;100.00;97141.44;5057342;28;20056;-62
2024/03/08 00:29:43;;;;;;;27.30;13.52;;;;;;;-0.75;100.00;97140.81;5061999;28;20067;-62
2024/03/08 00:32:10;;;;;;;24.50;14.40;;;;;;;-1.00;100.00;97139.28;5060852;28;20047;-62
2024/03/08 00:34:37;;;;;;;26.60;14.75;;;;;;;-0.90;100.00;97143.47;5053958;28;20037;-62
2024/03/08 00:37:04;;;;;;;26.45;14.10;;;;;;;-0.99;100.00;97138.25;5058687;28;20083;-62
2024/03/08 00:39:31;;;;;;;30.23;15.02;;;;;;;-1.03;100.00;97131.69;5068063;28;20508;-62
2024/03/08 00:41:57;;;;;;;33.20;17.00;;;;;;;-1.01;100.00;97132.31;5070892;28;20040;-62
2024/03/08 00:44:24;;;;;;;32.00;16.83;;;;;;;-1.11;100.00;97129.94;5062147;28;20049;-62
2024/03/08 00:46:51;;;;;;;29.05;15.45;;;;;;;-1.29;100.00;97129.47;5067469;28;20049;-62
2024/03/08 00:49:21;;;;;;;34.75;16.85;;;;;;;-1.27;100.00;97124.78;5058509;28;20064;-62
2024/03/08 00:51:48;;;;;;;34.33;17.42;;;;;;;-1.45;100.00;97118.00;5064924;28;20043;-62
2024/03/08 00:54:16;;;;;;;37.90;16.70;;;;;;;-1.47;100.00;97123.47;5070583;28;20048;-62
2024/03/08 00:56:42;;;;;;;30.23;16.45;;;;;;;-1.48;100.00;97129.81;5062886;28;20124;-62
2024/03/08 00:59:09;;;;;;;41.67;18.50;;;;;;;-1.49;100.00;97124.69;5069636;28;20051;-62
2024/03/08 01:01:36;;;;;;;34.90;17.83;;;;;;;-1.39;100.00;97130.56;5054617;28;20119;-62
2024/03/08 01:04:02;;;;;;;32.05;16.13;;;;;;;-1.44;100.00;97119.63;5061783;28;20072;-62
2024/03/08 01:06:29;;;;;;;33.33;15.75;;;;;;;-1.64;100.00;97122.00;5077025;28;20144;-62
2024/03/08 01:08:55;;;;;;;35.55;17.50;;;;;;;-1.79;100.00;97111.34;5066312;28;20151;-62
2024/03/08 01:11:22;;;;;;;39.50;16.98;;;;;;;-1.80;100.00;97115.00;5056887;28;20431;-62
2024/03/08 01:13:49;;;;;;;30.83;15.15;;;;;;;-1.83;100.00;97109.03;5066605;28;20047;-62
2024/03/08 01:16:16;;;;;;;30.17;15.40;;;;;;;-1.81;100.00;97116.03;5078532;28;20032;-62
2024/03/08 01:18:43;;;;;;;43.78;18.23;;;;;;;-1.65;100.00;97112.38;5058679;28;20067;-62
2024/03/08 01:21:10;;;;;;;39.33;19.13;;;;;;;-1.71;100.00;97104.13;5072056;28;20044;-62
2024/03/08 01:23:37;;;;;;;33.78;18.10;;;;;;;-1.85;100.00;97097.78;5081521;28;20044;-62
2024/03/08 01:26:04;;;;;;;41.72;17.73;;;;;;;-1.94;100.00;97090.06;5065675;28;20044;-62
2024/03/08 01:28:31;;;;;;;42.47;18.52;;;;;;;-1.87;100.00;97097.16;5074832;28;20046;-62
2024/03/08 01:30:58;;;;;;;43.85;17.60;;;;;;;-1.75;100.00;97088.75;5075045;28;20054;-62
2024/03/08 01:33:26;;;;;;;38.78;17.98;;;;;;;-1.80;100.00;97085.81;5079692;28;20050;-62
2024/03/08 01:35:53;;;;;;;39.67;17.50;;;;;;;-1.89;100.00;97082.38;5083001;28;20135;-62
2024/03/08 01:38:23;;;;;;;40.05;18.48;;;;;;;-2.00;100.00;97089.78;5075449;28;20040;-62
2024/03/08 01:40:51;;;;;;;34.00;17.50;;;;;;;-1.88;100.00;97081.41;5059673;28;20040;-62
2024/03/08 01:43:28;;;;;;;40.45;17.98;;;;;;;-1.97;100.00;97076.16;5084185;28;20071;-62
2024/03/08 01:45:59;;;;;;;36.65;18.08;;;;;;;-2.07;100.00;97070.28;5061281;28;20049;-62
2024/03/08 01:48:29;;;;;;;40.08;18.38;;;;;;;-1.97;100.00;97072.69;5060527;28;20045;-62
2024/03/08 01:50:57;;;;;;;36.00;16.33;;;;;;;-2.02;100.00;97078.53;5059438;28;20060;-62
2024/03/08 01:53:24;;;;;;;43.58;19.33;;;;;;;-1.93;100.00;97076.63;5066971;28;20040;-62
2024/03/08 01:55:55;;;;;;;38.83;19.05;;;;;;;-2.12;100.00;97059.38;5061629;28;20033;-61
2024/03/08 01:58:22;;;;;;;36.35;17.67;;;;;;;-1.96;100.00;97061.88;5061152;28;20055;-62
2024/03/08 02:00:49;;;;;;;37.33;18.30;;;;;;;-1.99;100.00;97053.47;5049976;28;20045;-62
2024/03/08 02:03:16;;;;;;;42.08;19.33;;;;;;;-2.14;100.00;97046.28;5056516;28;20479;-62
2024/03/08 02:05:43;;;;;;;38.58;17.73;;;;;;;-2.17;100.00;97053.78;5073274;28;20040;-62
2024/03/08 02:08:14;;;;;;;44.25;20.00;;;;;;;-2.26;100.00;97047.72;5068675;28;20074;-62
2024/03/08 02:10:41;;;;;;;41.03;20.83;;;;;;;-2.18;100.00;97042.34;5059338;28;20418;-62
2024/03/08 02:13:09;;;;;;;39.90;18.85;;;;;;;-2.20;100.00;97041.72;5062316;28;20299;-62
2024/03/08 02:15:55;;;;;;;43.42;18.45;;;;;;;-2.09;100.00;97041.25;5063949;28;20758;-61
2024/03/08 02:18:23;;;;;;;32.38;17.02;;;;;;;-2.02;100.00;97045.88;5064510;28;20075;-62
2024/03/08 02:20:52;;;;;;;39.45;17.27;;;;;;;-2.12;100.00;97023.06;5062004;28;20041;-62
2024/03/08 02:23:19;;;;;;;39.40;18.23;;;;;;;-2.35;100.00;97015.13;5063707;28;20045;-62
2024/03/08 02:25:47;;;;;;;38.83;18.38;;;;;;;-2.45;100.00;97023.34;5057826;28;20667;-62
2024/03/08 02:28:14;;;;;;;33.08;16.95;;;;;;;-2.30;100.00;97026.03;5063247;28;20707;-62
2024/03/08 02:30:41;;;;;;;39.47;18.27;;;;;;;-2.35;100.00;97017.78;5054740;28;20098;-62
2024/03/08 02:33:09;;;;;;;39.97;18.25;;;;;;;-2.42;100.00;97022.97;5047328;28;20139;-62
2024/03/08 02:35:36;;;;;;;39.22;18.30;;;;;;;-2.38;100.00;97021.63;5056639;28;20055;-62
2024/03/08 02:38:05;;;;;;;43.55;18.20;;;;;;;-2.24;100.00;97024.50;5048483;28;20049;-62
2024/03/08 02:40:32;;;;;;;39.35;18.25;;;;;;;-2.40;100.00;97013.00;5052722;28;21858;-62
2024/03/08 02:42:58;;;;;;;36.13;17.10;;;;;;;-2.64;100.00;97006.91;5063254;28;20039;-61
2024/03/08 02:45:25;;;;;;;39.97;19.05;;;;;;;-2.69;100.00;97001.28;5047168;28;20040;-62
2024/03/08 02:47:52;;;;;;;43.35;17.98;;;;;;;-2.64;100.00;97000.78;5047508;28;20565;-62
2024/03/08 02:50:18;;;;;;;41.10;17.88;;;;;;;-2.57;100.00;97014.13;5047634;28;21221;-62
2024/03/08 02:52:46;;;;;;;34.97;16.98;;;;;;;-2.53;100.00;97003.00;5058677;28;20043;-62
2024/03/08 02:55:16;;;;;;;42.15;18.50;;;;;;;-2.52;100.00;97003.81;5055106;28;20037;-62
2024/03/08 02:57:43;;;;;;;40.83;17.67;;;;;;;-2.70;100.00;96991.69;5051355;28;20045;-62
2024/03/08 03:00:10;;;;;;;40.80;18.92;;;;;;;-2.71;100.00;96997.16;5052167;28;20052;-62
2024/03/08 03:02:37;;;;;;;39.45;18.17;;;;;;;-2.73;100.00;96993.88;5055146;28;20041;-62
2024/03/08 03:05:09;;;;;;;39.63;17.05;;;;;;;-2.76;100.00;97001.16;5043379;28;20509;-62
2024/03/08 03:07:36;;;;;;;39.45;18.00;;;;;;;-2.79;100.00;97004.19;5060510;28;20755;-62
2024/03/08 03:10:02;;;;;;;36.35;16.65;;;;;;;-2.72;100.00;97000.81;5053749;28;20036;-62
2024/03/08 03:12:30;;;;;;;37.95;17.98;;;;;;;-2.75;100.00;97000.19;5053465;28;20527;-62
2024/03/08 03:14:57;;;;;;;41.65;18.38;;;;;;;-2.65;100.00;96999.13;5059702;28;20047;-63
2024/03/08 03:17:24;;;;;;;38.58;18.55;;;;;;;-2.68;100.00;96991.53;5057186;28;20037;-62
2024/03/08 03:19:52;;;;;;;38.15;17.88;;;;;;;-2.71;100.00;96997.16;5052968;28;20460;-62
2024/03/08 03:22:19;;;;;;;35.08;16.73;;;;;;;-2.68;100.00;96983.56;5052097;28;20070;-62
2024/03/08 03:24:51;;;;;;;37.92;16.02;;;;;;;-2.79;100.00;96983.00;5056421;28;20050;-62
2024/03/08 03:27:17;;;;;;;41.33;17.65;;;;;;;-2.89;100.00;96985.03;5057293;28;20060;-62
2024/03/08 03:29:49;;;;;;;36.38;17.30;;;;;;;-2.89;100.00;96980.56;5063806;28;20032;-62
2024/03/08 03:32:18;;;;;;;44.78;19.08;;;;;;;-2.91;100.00;96979.91;5056351;28;20144;-61
2024/03/08 03:34:44;;;;;;;39.13;17.90;;;;;;;-2.82;100.00;96978.03;5053074;28;20119;-62
2024/03/08 03:37:12;;;;;;;38.53;18.83;;;;;;;-2.81;100.00;96974.38;5046576;28;20046;-62
2024/03/08 03:39:48;;;;;;;47.78;18.70;;;;;;;-2.87;100.00;96964.50;5049714;28;20036;-62
2024/03/08 03:42:16;;;;;;;36.70;17.60;;;;;;;-3.04;100.00;96967.25;5045253;28;20077;-62
2024/03/08 03:44:47;;;;;;;39.40;18.40;;;;;;;-2.89;100.00;96967.31;5043043;28;20111;-62
2024/03/08 03:47:15;;;;;;;41.28;19.00;;;;;;;-2.92;100.00;96961.53;5053624;28;20491;-62
2024/03/08 03:49:42;;;;;;;37.90;17.30;;;;;;;-2.94;100.00;96959.09;5054219;28;20040;-62
2024/03/08 03:52:10;;;;;;;44.17;19.58;;;;;;;-3.09;100.00;96966.13;5046324;28;20535;-62
2024/03/08 03:54:36;;;;;;;45.22;20.10;;;;;;;-3.21;100.00;96958.56;5048723;28;20502;-62
2024/03/08 03:57:03;;;;;;;42.10;17.05;;;;;;;-3.22;100.00;96959.56;5055440;28;20123;-62
2024/03/08 03:59:31;;;;;;;39.05;17.45;;;;;;;-3.13;100.00;96963.81;5060055;28;20067;-62
2024/03/08 04:01:57;;;;;;;38.40;17.50;;;;;;;-3.14;100.00;96966.63;5051890;28;20098;-62
2024/03/08 04:04:24;;;;;;;37.83;17.05;;;;;;;-3.10;100.00;96962.63;5057986;28;20101;-62
2024/03/08 04:06:51;;;;;;;39.15;18.13;;;;;;;-3.06;100.00;96965.78;5058462;28;20608;-62
2024/03/08 04:09:22;;;;;;;38.25;17.70;;;;;;;-3.05;100.00;96960.31;5042023;28;20666;-63
2024/03/08 04:11:50;;;;;;;38.83;18.67;;;;;;;-3.06;100.00;96955.19;5044668;28;20095;-62
2024/03/08 04:14:17;;;;;;;38.90;18.50;;;;;;;-3.18;100.00;96952.09;5050894;28;20040;-62
2024/03/08 04:16:43;;;;;;;36.80;18.10;;;;;;;-3.19;100.00;96955.75;5045080;28;20057;-62
2024/03/08 04:19:10;;;;;;;39.47;18.77;;;;;;;-3.13;100.00;96949.75;5056418;28;20052;-62
2024/03/08 04:21:36;;;;;;;43.80;19.52;;;;;;;-3.09;100.00;96955.53;5055509;28;20106;-62
2024/03/08 04:24:03;;;;;;;37.80;16.13;;;;;;;-3.04;100.00;96958.47;5059760;28;20041;-62
2024/03/08 04:26:29;;;;;;;44.20;17.45;;;;;;;-3.16;100.00;96950.91;5059837;28;20479;-62
2024/03/08 04:28:56;;;;;;;40.58;19.60;;;;;;;-3.08;100.00;96954.53;5054699;28;20473;-61
2024/03/08 04:31:23;;;;;;;35.63;17.02;;;;;;;-2.91;100.00;96953.41;5046720;28;20036;-62
2024/03/08 04:33:49;;;;;;;36.20;16.20;;;;;;;-2.96;100.00;96946.97;5047782;28;20091;-62
2024/03/08 04:36:16;;;;;;;35.78;17.75;;;;;;;-3.04;100.00;96938.13;5060137;28;20044;-62
2024/03/08 04:38:43;;;;;;;37.40;15.77;;;;;;;-3.11;100.00;96939.81;5045770;28;20631;-62
2024/03/08 04:41:10;;;;;;;40.10;17.30;;;;;;;-3.15;100.00;96934.03;5049717;28;20068;-63
2024/03/08 04:43:36;;;;;;;37.20;16.83;;;;;;;-3.11;100.00;96931.88;5057965;28;20036;-62
2024/03/08 04:46:03;;;;;;;38.92;17.70;;;;;;;-2.90;100.00;96931.25;5048917;28;20052;-62
2024/03/08 04:48:30;;;;;;;38.50;16.63;;;;;;;-3.17;100.00;96925.44;5063218;28;21470;-62
2024/03/08 04:50:57;;;;;;;31.17;16.40;;;;;;;-3.25;100.00;96922.84;5059177;28;20127;-62
2024/03/08 04:53:24;;;;;;;38.92;15.95;;;;;;;-3.15;100.00;96925.25;5045707;28;20033;-62
2024/03/08 04:55:50;;;;;;;38.10;15.38;;;;;;;-3.15;100.00;96925.25;5053809;28;20048;-62
2024/03/08 04:58:17;;;;;;;37.88;17.20;;;;;;;-3.35;100.00;96925.72;5047163;28;20051;-62
2024/03/08 05:00:44;;;;;;;35.40;17.33;;;;;;;-3.38;100.00;96920.78;5049760;28;20037;-62
2024/03/08 05:03:10;;;;;;;38.83;16.92;;;;;;;-3.34;100.00;96921.25;5059479;28;20046;-62
2024/03/08 05:05:37;;;;;;;31.20;15.85;;;;;;;-3.26;100.00;96921.19;5043779;28;20041;-62
2024/03/08 05:08:05;;;;;;;36.15;16.17;;;;;;;-3.21;100.00;96920.69;5057695;28;20132;-62
2024/03/08 05:10:32;;;;;;;31.40;15.30;;;;;;;-3.28;100.00;96912.63;5052560;28;20056;-62
2024/03/08 05:12:59;;;;;;;38.67;16.35;;;;;;;-3.21;100.00;96915.38;5062369;28;20040;-62
2024/03/08 05:15:25;;;;;;;34.95;15.63;;;;;;;-3.14;100.00;96916.31;5064080;28;20041;-62
2024/03/08 05:17:52;;;;;;;35.75;16.63;;;;;;;-3.15;100.00;96922.63;5053743;28;20041;-62
2024/03/08 05:20:19;;;;;;;36.83;16.50;;;;;;;-3.23;100.00;96915.56;5058253;28;20116;-62
2024/03/08 05:22:46;;;;;;;35.35;17.23;;;;;;;-3.17;100.00;96924.63;5053047;28;20498;-62
2024/03/08 05:25:14;;;;;;;33.80;15.73;;;;;;;-3.21;100.00;96913.53;5055233;28;20041;-62
2024/03/08 05:27:40;;;;;;;35.92;16.35;;;;;;;-3.18;100.00;96918.50;5058567;28;20037;-62
2024/03/08 05:30:07;;;;;;;39.70;18.00;;;;;;;-3.15;100.00;96915.50;5060120;28;20126;-62
2024/03/08 05:32:34;;;;;;;37.63;16.70;;;;;;;-3.24;100.00;96911.28;5062735;28;20044;-62
2024/03/08 05:35:02;;;;;;;32.08;13.82;;;;;;;-3.24;100.00;96907.78;5064057;28;20157;-62
2024/03/08 05:37:31;;;;;;;33.42;15.60;;;;;;;-3.27;100.00;96901.03;5059210;28;20751;-63
2024/03/08 05:39:58;;;;;;;40.40;19.80;;;;;;;-3.23;100.00;96904.97;5055116;28;20068;-63
2024/03/08 05:42:24;;;;;;;32.22;15.57;;;;;;;-3.21;100.00;96899.50;5057134;28;20044;-64
2024/03/08 05:44:51;;;;;;;35.70;15.98;;;;;;;-3.24;100.00;96903.31;5056030;28;20090;-64
2024/03/08 05:47:18;;;;;;;34.33;15.80;;;;;;;-3.26;100.00;96907.94;5053975;28;20076;-63
2024/03/08 05:49:44;;;;;;;34.10;15.25;;;;;;;-3.05;100.00;96909.16;5061296;28;20063;-63
2024/03/08 05:52:11;;;;;;;30.30;14.57;;;;;;;-3.03;100.00;96902.66;5057451;28;20507;-63
2024/03/08 05:54:37;;;;;;;34.50;16.13;;;;;;;-3.21;100.00;96895.00;5056555;28;20118;-63
2024/03/08 05:57:04;;;;;;;32.03;16.15;;;;;;;-3.05;100.00;96903.84;5062649;28;20057;-64
2024/03/08 05:59:30;;;;;;;36.15;17.30;;;;;;;-3.11;100.00;96892.13;5057574;28;20389;-63
2024/03/08 06:01:57;;;;;;;33.40;14.82;;;;;;;-3.15;100.00;96896.13;5061536;28;20432;-64
2024/03/08 06:04:24;;;;;;;34.47;15.80;;;;;;;-3.16;100.00;96884.69;5049600;28;20447;-62
2024/03/08 06:06:55;;;;;;;33.58;15.70;;;;;;;-3.18;100.00;96889.38;5051014;28;20048;-63
2024/03/08 06:09:23;;;;;;;35.53;15.70;;;;;;;-3.15;100.00;96894.31;5052005;28;20044;-63
2024/03/08 06:11:53;;;;;;;31.63;15.77;;;;;;;-3.16;100.00;96892.66;5058593;28;20041;-64
2024/03/08 06:14:20;;;;;;;35.78;17.63;;;;;;;-3.23;100.00;96890.88;5058311;28;20059;-64
2024/03/08 06:16:49;;;;;;;31.35;15.13;;;;;;;-3.25;100.00;96899.00;5065441;28;20046;-63
2024/03/08 06:19:16;;;;;;;32.50;14.63;;;;;;;-3.16;100.00;96905.09;5060943;28;20109;-63
2024/03/08 06:21:43;;;;;;;35.92;18.67;;;;;;;-3.10;100.00;96896.41;5053419;28;20040;-63
2024/03/08 06:24:09;;;;;;;33.08;16.13;;;;;;;-3.16;100.00;96900.59;5057755;28;20063;-63
2024/03/08 06:26:37;;;;;;;32.80;16.40;;;;;;;-3.00;100.00;96898.84;5054494;28;20049;-62
2024/03/08 06:29:08;;;;;;;34.22;16.65;;;;;;;-2.95;100.00;96899.13;5055107;28;20056;-63
2024/03/08 06:31:38;;;;;;;34.85;15.40;;;;;;;-2.92;100.00;96885.53;5057480;28;20094;-64
2024/03/08 06:34:07;;;;;;;32.50;17.08;;;;;;;-2.94;100.00;96892.84;5055739;28;20047;-63
2024/03/08 06:36:35;;;;;;;39.13;17.83;;;;;;;-2.54;100.00;96897.94;5054292;28;20044;-63
2024/03/08 06:39:01;;;;;;;30.30;15.75;;;;;;;-2.58;100.00;96886.06;5054281;28;20052;-65
2024/03/08 06:41:28;;;;;;;32.70;16.45;;;;;;;-2.57;100.00;96889.53;5067042;28;20047;-65
2024/03/08 06:43:57;;;;;;;32.95;16.33;;;;;;;-2.59;100.00;96887.06;5055688;28;20036;-64
2024/03/08 06:46:24;;;;;;;33.25;16.02;;;;;;;-2.38;100.00;96890.84;5063082;28;20044;-64
2024/03/08 06:48:51;;;;;;;34.72;16.55;;;;;;;-2.39;100.00;96895.31;5052810;28;20041;-64
2024/03/08 06:51:18;;;;;;;39.33;16.70;;;;;;;-2.27;100.00;96890.41;5057615;28;20102;-65
2024/03/08 06:53:45;;;;;;;39.65;19.00;;;;;;;-2.20;100.00;96889.69;5058192;28;20037;-65
2024/03/08 06:56:12;;;;;;;42.50;17.38;;;;;;;-1.92;100.00;96889.06;5066060;28;20098;-64
2024/03/08 06:58:38;;;;;;;41.50;18.10;;;;;;;-1.66;100.00;96893.06;5062952;28;20052;-64
2024/03/08 07:01:07;;;;;;;37.35;19.17;;;;;;;-1.51;100.00;96888.50;5058701;28;20078;-64
2024/03/08 07:03:34;;;;;;;40.65;20.33;;;;;;;-1.32;100.00;96895.06;5054572;28;20152;-64
2024/03/08 07:06:02;;;;;;;39.35;18.88;;;;;;;-1.16;100.00;96877.25;5058700;28;20048;-64
2024/03/08 07:08:30;;;;;;;40.78;19.42;;;;;;;-1.01;100.00;96885.16;5062264;28;20128;-65
2024/03/08 07:10:58;;;;;;;37.65;19.35;;;;;;;-0.81;100.00;96884.53;5057877;28;20056;-64
2024/03/08 07:13:25;;;;;;;37.67;19.58;;;;;;;-0.67;100.00;96878.28;5059322;28;20047;-63
2024/03/08 07:15:52;;;;;;;36.03;17.98;;;;;;;-0.50;100.00;96875.38;5064031;28;20048;-64
2024/03/08 07:18:18;;;;;;;33.13;17.92;;;;;;;-0.44;100.00;96874.56;5058522;28;20045;-65
2024/03/08 07:20:45;;;;;;;33.42;16.98;;;;;;;-0.25;100.00;96877.59;5058536;28;20047;-63
2024/03/08 07:23:45;;;;;;;32.35;17.20;;;;;;;-0.08;100.00;96879.94;5053333;28;20733;-65
2024/03/08 07:26:00;;;;;;;30.98;16.77;;;;;;;0.07;100.00;96874.50;5063558;28;20045;-64
2024/03/08 07:28:27;;;;;;;33.65;16.65;;;;;;;0.27;100.00;96871.09;5056906;28;20714;-64
2024/03/08 07:31:07;;;;;;;33.03;16.25;;;;;;;0.51;100.00;96869.75;5058287;28;20055;-65
2024/03/08 07:33:34;;;;;;;29.75;16.13;;;;;;;0.59;100.00;96868.75;5050686;28;20484;-64
2024/03/08 07:36:01;;;;;;;30.50;16.13;;;;;;;0.78;100.00;96867.16;5056200;28;20044;-64
2024/03/08 07:38:27;;;;;;;32.63;17.15;;;;;;;0.87;100.00;96859.78;5055587;28;20052;-63
2024/03/08 07:40:54;;;;;;;28.92;16.25;;;;;;;0.75;100.00;96862.22;5056855;28;20040;-69
2024/03/08 07:43:22;;;;;;;26.95;15.70;;;;;;;0.85;100.00;96859.19;5056906;28;20040;-65
2024/03/08 07:45:48;;;;;;;25.15;13.98;;;;;;;0.97;100.00;96860.22;5055571;28;20184;-64
2024/03/08 07:48:16;;;;;;;29.33;14.77;;;;;;;0.93;100.00;96861.66;5055621;28;20040;-64
2024/03/08 07:50:43;;;;;;;24.98;13.80;;;;;;;1.16;100.00;96861.28;5059924;28;20044;-65
2024/03/08 07:53:10;;;;;;;24.92;15.25;;;;;;;1.23;100.00;96855.13;5065368;28;20044;-64
2024/03/08 07:55:37;;;;;;;25.27;13.88;;;;;;;1.24;100.00;96859.41;5053302;28;20041;-64
2024/03/08 07:58:04;;;;;;;25.75;14.63;;;;;;;1.21;100.00;96857.19;5048955;28;20041;-64
2024/03/08 08:00:33;;;;;;;26.00;14.20;;;;;;;1.25;100.00;96850.41;5055278;28;20041;-64
2024/03/08 08:03:01;;;;;;;27.98;13.55;;;;;;;1.35;100.00;96852.66;5055628;28;20480;-64
2024/03/08 08:05:27;;;;;;;29.48;15.73;;;;;;;1.43;100.00;96855.09;5062035;28;20036;-64
2024/03/08 08:07:54;;;;;;;25.90;14.77;;;;;;;1.57;100.00;96850.59;5059366;28;20041;-64
2024/03/08 08:10:24;;;;;;;25.05;14.20;;;;;;;1.54;100.00;96853.66;5053488;28;20040;-64
2024/03/08 08:12:52;;;;;;;26.15;14.13;;;;;;;1.72;100.00;96846.84;5062167;28;20052;-64
2024/03/08 08:15:19;;;;;;;21.38;13.23;;;;;;;1.68;100.00;96855.31;5062931;28;20411;-65
2024/03/08 08:17:46;;;;;;;30.13;17.70;;;;;;;1.72;100.00;96852.19;5059925;28;20052;-65
2024/03/08 08:20:13;;;;;;;34.20;18.05;;;;;;;1.92;100.00;96850.31;5054458;28;20044;-64
2024/03/08 08:22:40;;;;;;;26.20;15.45;;;;;;;2.02;100.00;96851.72;5047077;28;20418;-65
2024/03/08 08:25:07;;;;;;;20.63;12.93;;;;;;;2.25;100.00;96837.06;5062619;28;20566;-64
2024/03/08 08:27:36;;;;;;;24.88;14.02;;;;;;;2.11;100.00;96834.47;5051941;28;20102;-65
2024/03/08 08:30:07;;;;;;;26.20;12.75;;;;;;;2.21;100.00;96837.50;5053874;28;20036;-64
2024/03/08 08:32:39;;;;;;;24.45;13.73;;;;;;;2.24;100.00;96832.78;5049343;28;20049;-63
2024/03/08 08:35:06;;;;;;;23.48;12.68;;;;;;;2.31;100.00;96828.19;5061639;28;20622;-64
2024/03/08 08:37:33;;;;;;;23.13;13.18;;;;;;;2.22;100.00;96822.28;5045807;28;20047;-64
2024/03/08 08:40:05;;;;;;;24.88;12.55;;;;;;;1.98;100.00;96827.28;5053816;28;20048;-64
2024/03/08 08:42:32;;;;;;;24.48;12.95;;;;;;;1.98;100.00;96821.16;5048115;28;20358;-65
2024/03/08 08:44:58;;;;;;;21.63;12.18;;;;;;;2.26;100.00;96828.03;5061258;28;20044;-65
2024/03/08 08:47:37;;;;;;;23.02;12.60;;;;;;;2.44;100.00;96830.81;5053585;28;20103;-64
2024/03/08 08:50:05;;;;;;;25.67;13.48;;;;;;;2.57;100.00;96832.59;5067861;28;20397;-63
2024/03/08 08:52:32;;;;;;;24.48;11.93;;;;;;;2.51;100.00;96830.78;5068582;28;20052;-64
2024/03/08 08:54:59;;;;;;;21.02;13.05;;;;;;;2.54;100.00;96830.34;5067892;28;20119;-64
2024/03/08 08:57:27;;;;;;;23.30;12.98;;;;;;;2.64;100.00;96829.91;5058160;28;20047;-65
2024/03/08 08:59:53;;;;;;;23.55;11.95;;;;;;;2.85;100.00;96818.03;5064382;28;20046;-65
2024/03/08 09:02:20;;;;;;;19.40;10.38;;;;;;;2.97;100.00;96820.84;5065804;28;20119;-64
2024/03/08 09:04:50;;;;;;;22.30;12.02;;;;;;;2.88;100.00;96824.81;5064596;28;20044;-63
2024/03/08 09:07:18;;;;;;;21.10;11.20;;;;;;;2.67;100.00;96823.28;5069413;28;20058;-64
2024/03/08 09:09:45;;;;;;;21.40;12.25;;;;;;;2.59;100.00;96822.50;5064898;28;20833;-65
2024/03/08 09:12:13;;;;;;;28.45;15.32;;;;;;;2.42;100.00;96818.69;5066182;28;20039;-65
2024/03/08 09:14:41;;;;;;;22.52;12.20;;;;;;;2.55;100.00;96807.13;5059143;28;20047;-64
2024/03/08 09:17:11;;;;;;;23.73;11.90;;;;;;;2.91;100.00;96804.84;5059677;28;20048;-64
2024/03/08 09:19:37;;;;;;;21.30;11.45;;;;;;;3.10;100.00;96808.41;5059734;28;20048;-65
2024/03/08 09:22:04;;;;;;;20.88;11.65;;;;;;;2.99;100.00;96797.38;5064700;28;20059;-64
2024/03/08 09:24:31;;;;;;;19.25;10.50;;;;;;;3.14;100.00;96803.44;5061644;28;20037;-65
2024/03/08 09:27:00;;;;;;;21.60;11.95;;;;;;;3.20;100.00;96800.72;5062772;28;20052;-64
2024/03/08 09:29:27;;;;;;;21.67;11.38;;;;;;;3.21;100.00;96794.31;5061127;28;20437;-64
2024/03/08 09:31:53;;;;;;;21.83;11.98;;;;;;;3.20;100.00;96794.53;5063920;28;20044;-63
2024/03/08 09:34:20;;;;;;;21.23;11.48;;;;;;;3.06;100.00;96791.97;5063528;28;20415;-66
2024/03/08 09:36:54;;;;;;;28.13;16.52;;;;;;;3.12;100.00;96791.09;5050379;28;20495;-65
2024/03/08 09:39:21;;;;;;;22.10;13.27;;;;;;;3.31;100.00;96793.03;5056804;28;20045;-64
2024/03/08 09:41:50;;;;;;;18.55;10.70;;;;;;;3.27;100.00;96791.81;5054966;28;20121;-65
2024/03/08 09:44:17;;;;;;;20.27;11.13;;;;;;;3.35;100.00;96788.84;5054600;28;20115;-65
2024/03/08 09:46:47;;;;;;;21.80;10.93;;;;;;;3.30;100.00;96783.34;5061917;28;20051;-64
2024/03/08 09:49:14;;;;;;;20.27;11.30;;;;;;;3.27;100.00;96784.59;5059507;28;20044;-65
2024/03/08 09:51:41;;;;;;;20.52;11.70;;;;;;;3.57;100.00;96785.78;5058041;28;20055;-66
2024/03/08 09:54:08;;;;;;;21.08;11.80;;;;;;;3.56;100.00;96784.94;5057689;28;20719;-65
2024/03/08 09:56:47;;;;;;;20.27;11.23;;;;;;;3.41;100.00;96785.31;5059788;28;20043;-64
2024/03/08 10:01:49;;;;;;;17.83;11.35;;;;;;;3.53;100.00;96782.72;5057726;28;20044;-65
2024/03/08 10:04:17;;;;;;;20.35;11.55;;;;;;;3.66;100.00;96778.25;5055684;28;20147;-65
2024/03/08 10:06:46;;;;;;;19.58;11.20;;;;;;;3.56;100.00;96779.59;5058567;28;20098;-64
2024/03/08 10:09:13;;;;;;;18.38;10.48;;;;;;;3.79;100.00;96772.75;5061903;28;20037;-65
2024/03/08 10:11:40;;;;;;;20.70;12.18;;;;;;;3.42;100.00;96775.44;5044425;28;20103;-65
2024/03/08 10:14:08;;;;;;;19.60;10.98;;;;;;;3.50;100.00;96773.25;5057628;28;20127;-65
2024/03/08 10:16:35;;;;;;;19.08;11.63;;;;;;;3.68;100.00;96766.28;5064141;28;20041;-65
2024/03/08 10:19:03;;;;;;;19.52;10.73;;;;;;;3.64;100.00;96763.25;5054384;28;20493;-64
2024/03/08 10:21:29;;;;;;;20.25;11.18;;;;;;;3.93;100.00;96765.41;5050562;28;21766;-66
2024/03/08 10:23:56;;;;;;;19.30;11.07;;;;;;;4.06;100.00;96761.75;5058916;28;20041;-65
2024/03/08 10:26:23;;;;;;;20.55;11.63;;;;;;;4.08;100.00;96756.16;5048420;28;20040;-64
2024/03/08 10:28:52;;;;;;;18.40;11.38;;;;;;;4.23;100.00;96756.56;5059995;28;20048;-65
2024/03/08 10:31:20;;;;;;;18.63;10.95;;;;;;;4.20;100.00;96746.31;5054300;28;20052;-65
2024/03/08 10:33:47;;;;;;;19.23;11.50;;;;;;;4.32;100.00;96748.22;5052539;28;20029;-64
2024/03/08 10:36:15;;;;;;;19.50;10.10;;;;;;;4.50;100.00;96747.38;5061710;28;20052;-64
2024/03/08 10:38:46;;;;;;;20.95;11.60;;;;;;;4.72;100.00;96739.59;5062233;28;20040;-65
2024/03/08 10:41:13;;;;;;;19.60;10.60;;;;;;;4.79;100.00;96740.31;5059855;28;20131;-65
2024/03/08 10:44:32;;;;;;;19.17;11.68;;;;;;;4.61;100.00;96732.34;5049375;28;20041;-64
2024/03/08 10:47:23;;;;;;;18.27;11.13;;;;;;;4.51;100.00;96731.06;5056371;28;20076;-65
2024/03/08 10:50:22;;;;;;;20.60;12.03;;;;;;;4.61;100.00;96729.69;5059658;28;20173;-66
2024/03/08 10:52:50;;;;;;;19.17;10.63;;;;;;;4.60;100.00;96730.72;5054366;28;20052;-64
2024/03/08 10:55:20;;;;;;;19.00;11.48;;;;;;;4.23;100.00;96732.47;5059793;28;20041;-64
2024/03/08 10:57:47;;;;;;;20.48;11.10;;;;;;;4.56;100.00;96727.66;5047644;28;20041;-65
2024/03/08 11:00:15;;;;;;;19.35;10.57;;;;;;;4.86;100.00;96731.38;5052488;28;20140;-66
2024/03/08 11:02:45;;;;;;;21.77;10.65;;;;;;;4.93;100.00;96730.19;5056207;28;20047;-65
2024/03/08 11:05:38;;;;;;;19.17;11.00;;;;;;;5.06;100.00;96731.84;5056473;28;20475;-66
2024/03/08 11:08:18;;;;;;;22.13;13.35;;;;;;;5.03;100.00;96713.53;5053398;28;20134;-65
2024/03/08 11:10:55;;;;;;;19.05;11.52;;;;;;;5.00;100.00;96722.03;5048518;28;20040;-65
2024/03/08 11:13:40;;;;;;;32.53;16.08;;;;;;;5.14;100.00;96722.63;5059675;28;20037;-66
2024/03/08 11:16:09;;;;;;;19.65;11.32;;;;;;;5.13;100.00;96723.69;5055663;28;20132;-65
2024/03/08 11:18:40;;;;;;;25.33;12.63;;;;;;;5.13;100.00;96718.31;5062128;28;20488;-64